Time;durP1;ratioP1;P1;durP2;ratioP2;P2;SDS_P1;SDS_P2;PMS_P1;PMS_P2;Temp;Humidity;BMP_temperature;BMP_pressure;BME280_temperature;BME280_humidity;BME280_pressure;Samples;Min_cycle;Max_cycle;Signal;HPM_P1;HPM_P2
2022/07/07 00:01:57;;;;;;;13.30;3.60;;;17.70;99.90;;;;;;5046278;28;20021;-66
2022/07/07 00:04:23;;;;;;;11.10;3.78;;;17.70;99.90;;;;;;5045989;28;20033;-66
2022/07/07 00:06:49;;;;;;;8.68;4.22;;;17.70;99.90;;;;;;5045951;28;20028;-66
2022/07/07 00:09:15;;;;;;;10.20;4.22;;;17.60;99.90;;;;;;5045975;28;20044;-66
2022/07/07 00:11:41;;;;;;;11.88;3.92;;;17.50;99.90;;;;;;5044283;28;20026;-66
2022/07/07 00:14:08;;;;;;;10.13;4.35;;;17.50;99.90;;;;;;5044741;28;20025;-66
2022/07/07 00:16:35;;;;;;;10.35;4.20;;;17.40;99.90;;;;;;5045701;28;20018;-65
2022/07/07 00:19:02;;;;;;;13.80;4.55;;;17.40;99.90;;;;;;5044679;28;20041;-66
2022/07/07 00:21:28;;;;;;;13.80;3.42;;;17.50;99.90;;;;;;5044597;28;20327;-66
2022/07/07 00:23:54;;;;;;;14.30;4.15;;;17.50;99.90;;;;;;5028242;28;20026;-65
2022/07/07 00:26:20;;;;;;;14.32;4.22;;;17.60;99.90;;;;;;5045335;28;20017;-65
2022/07/07 00:28:47;;;;;;;10.05;3.88;;;17.60;99.90;;;;;;5045544;28;20025;-66
2022/07/07 00:31:13;;;;;;;8.82;3.80;;;17.70;99.90;;;;;;5045481;28;20052;-66
2022/07/07 00:33:39;;;;;;;11.00;3.50;;;17.70;99.90;;;;;;5044537;28;20096;-65
2022/07/07 00:36:07;;;;;;;6.97;3.20;;;17.80;99.90;;;;;;5045049;28;20017;-66
2022/07/07 00:38:33;;;;;;;11.07;3.33;;;17.90;99.90;;;;;;5045642;28;20026;-66
2022/07/07 00:40:58;;;;;;;10.27;3.00;;;18.00;99.90;;;;;;5043991;28;20308;-67
2022/07/07 00:43:24;;;;;;;8.55;2.88;;;18.10;99.90;;;;;;5045416;28;20028;-66
2022/07/07 00:45:51;;;;;;;10.35;2.97;;;18.10;99.90;;;;;;5045086;28;20178;-66
2022/07/07 00:48:18;;;;;;;8.38;2.70;;;18.20;99.90;;;;;;5043454;28;20212;-65
2022/07/07 00:50:45;;;;;;;6.45;2.47;;;18.30;99.90;;;;;;5043944;28;20022;-66
2022/07/07 00:53:11;;;;;;;10.05;2.70;;;18.40;99.90;;;;;;5043751;28;20057;-66
2022/07/07 00:55:38;;;;;;;6.72;2.30;;;18.40;99.90;;;;;;5044347;28;20129;-66
2022/07/07 00:58:04;;;;;;;10.80;2.47;;;18.40;99.90;;;;;;5043917;28;20033;-66
2022/07/07 01:00:29;;;;;;;11.00;2.80;;;18.40;99.90;;;;;;5043584;28;20021;-66
2022/07/07 01:02:55;;;;;;;10.07;3.17;;;18.40;99.90;;;;;;5044821;28;20033;-66
2022/07/07 01:05:23;;;;;;;7.93;3.13;;;18.40;99.90;;;;;;5044635;28;20037;-66
2022/07/07 01:07:51;;;;;;;11.55;3.13;;;18.40;99.90;;;;;;5045147;28;20021;-66
2022/07/07 01:10:17;;;;;;;11.55;3.75;;;18.40;99.90;;;;;;5044801;28;20103;-66
2022/07/07 01:12:43;;;;;;;9.80;3.13;;;18.50;99.90;;;;;;5043081;28;20029;-66
2022/07/07 01:15:11;;;;;;;7.72;3.03;;;18.50;99.90;;;;;;5044929;28;20045;-66
2022/07/07 01:17:37;;;;;;;10.02;2.83;;;18.40;99.90;;;;;;5044439;28;20041;-66
2022/07/07 01:20:05;;;;;;;9.07;3.42;;;18.40;99.90;;;;;;5044821;28;20080;-66
2022/07/07 01:22:34;;;;;;;7.18;3.25;;;18.40;99.90;;;;;;5043578;28;20088;-66
2022/07/07 01:24:59;;;;;;;10.60;3.15;;;18.40;99.90;;;;;;5044134;28;20327;-66
2022/07/07 01:27:25;;;;;;;8.07;2.65;;;18.40;99.90;;;;;;5043326;28;20025;-65
2022/07/07 01:29:54;;;;;;;5.68;2.40;;;18.30;99.90;;;;;;5044579;28;20064;-65
2022/07/07 01:32:21;;;;;;;12.32;2.40;;;18.30;99.90;;;;;;5043279;28;20030;-65
2022/07/07 01:34:48;;;;;;;5.28;2.38;;;18.30;99.90;;;;;;5043112;28;20297;-66
2022/07/07 01:37:14;;;;;;;7.85;2.47;;;18.40;99.90;;;;;;5042815;28;20018;-65
2022/07/07 01:39:42;;;;;;;8.60;2.65;;;18.30;99.90;;;;;;5043074;28;20021;-66
2022/07/07 01:42:09;;;;;;;8.38;2.72;;;18.30;99.90;;;;;;5044002;28;20040;-65
2022/07/07 01:44:36;;;;;;;11.35;3.47;;;18.30;99.90;;;;;;5043285;28;20017;-66
2022/07/07 01:47:03;;;;;;;11.90;3.08;;;18.30;99.90;;;;;;5026199;28;20033;-65
2022/07/07 01:49:30;;;;;;;4.93;2.08;;;18.30;99.90;;;;;;5044257;28;20037;-65
2022/07/07 01:51:57;;;;;;;8.50;2.75;;;18.30;99.90;;;;;;5026407;28;20060;-66
2022/07/07 01:54:24;;;;;;;11.50;2.83;;;18.30;99.90;;;;;;5044104;28;20025;-65
2022/07/07 01:56:49;;;;;;;9.55;2.63;;;18.30;99.90;;;;;;5043374;28;20040;-65
2022/07/07 01:59:15;;;;;;;8.45;2.78;;;18.20;99.90;;;;;;5042617;28;20029;-66
2022/07/07 02:01:40;;;;;;;7.50;2.55;;;18.20;99.90;;;;;;5043805;28;20029;-66
2022/07/07 02:04:06;;;;;;;6.30;2.67;;;18.20;99.90;;;;;;5042744;28;20212;-66
2022/07/07 02:06:32;;;;;;;5.75;2.08;;;18.20;99.90;;;;;;5043835;28;20055;-66
2022/07/07 02:08:58;;;;;;;12.52;3.10;;;18.10;99.90;;;;;;5042558;28;20049;-66
2022/07/07 02:11:27;;;;;;;10.90;2.58;;;18.10;99.90;;;;;;5043677;28;20021;-66
2022/07/07 02:13:53;;;;;;;9.48;2.40;;;18.00;99.90;;;;;;5042344;28;20215;-66
2022/07/07 02:16:21;;;;;;;3.47;2.03;;;18.00;99.90;;;;;;5042581;28;20025;-66
2022/07/07 02:18:48;;;;;;;4.28;1.60;;;17.90;99.90;;;;;;5042507;28;20040;-65
2022/07/07 02:21:15;;;;;;;5.68;2.28;;;17.90;99.90;;;;;;5042628;28;20025;-66
2022/07/07 02:23:43;;;;;;;6.68;2.28;;;17.90;99.90;;;;;;5043515;28;20025;-66
2022/07/07 02:26:09;;;;;;;5.88;2.42;;;17.80;99.90;;;;;;5042372;28;20033;-66
2022/07/07 02:28:34;;;;;;;8.45;2.30;;;17.80;99.90;;;;;;5043558;28;20064;-65
2022/07/07 02:31:00;;;;;;;10.18;2.45;;;17.80;99.90;;;;;;5043430;28;20037;-66
2022/07/07 02:33:26;;;;;;;6.00;2.10;;;17.70;99.90;;;;;;5042369;28;20021;-66
2022/07/07 02:35:53;;;;;;;8.18;2.35;;;17.80;99.90;;;;;;5043334;28;20029;-66
2022/07/07 02:38:19;;;;;;;5.70;1.98;;;17.80;99.90;;;;;;5042123;28;20313;-66
2022/07/07 02:40:45;;;;;;;3.30;1.95;;;17.80;99.90;;;;;;5043177;28;20028;-66
2022/07/07 02:43:14;;;;;;;8.43;2.25;;;17.80;99.90;;;;;;5043061;28;20312;-66
2022/07/07 02:45:41;;;;;;;6.00;2.10;;;17.80;99.90;;;;;;5043345;28;20025;-66
2022/07/07 02:48:08;;;;;;;6.93;1.70;;;17.90;99.90;;;;;;5042247;28;20093;-66
2022/07/07 02:50:34;;;;;;;5.00;1.75;;;18.00;99.90;;;;;;5042421;28;20088;-66
2022/07/07 02:52:59;;;;;;;2.28;1.70;;;18.00;99.90;;;;;;5043025;28;20053;-66
2022/07/07 02:55:25;;;;;;;4.78;1.38;;;18.00;99.90;;;;;;5041820;28;20113;-66
2022/07/07 02:57:51;;;;;;;6.82;1.98;;;18.10;99.90;;;;;;5042932;28;20037;-66
2022/07/07 03:00:17;;;;;;;8.48;1.75;;;18.10;99.90;;;;;;5043555;28;20215;-66
2022/07/07 03:02:43;;;;;;;1.48;1.20;;;18.10;99.90;;;;;;5042992;28;20036;-66
2022/07/07 03:05:11;;;;;;;2.85;1.30;;;18.00;99.90;;;;;;5042068;28;20021;-65
2022/07/07 03:07:37;;;;;;;2.40;0.90;;;18.10;99.90;;;;;;5043179;28;20086;-66
2022/07/07 03:10:03;;;;;;;0.77;0.77;;;18.00;99.90;;;;;;5044051;28;20053;-66
2022/07/07 03:12:29;;;;;;;1.58;0.70;;;18.10;99.40;;;;;;5047019;28;20279;-66
2022/07/07 03:14:54;;;;;;;1.88;0.70;;;18.10;99.30;;;;;;5044530;28;20025;-66
2022/07/07 03:17:20;;;;;;;0.82;0.60;;;18.20;98.90;;;;;;5045631;28;20029;-66
2022/07/07 03:19:46;;;;;;;0.95;0.52;;;18.20;98.70;;;;;;5047062;28;20075;-65
2022/07/07 03:22:11;;;;;;;0.60;0.55;;;18.20;98.50;;;;;;5047091;28;20025;-65
2022/07/07 03:24:37;;;;;;;2.00;0.60;;;18.20;98.40;;;;;;5045618;28;20028;-66
2022/07/07 03:27:03;;;;;;;1.90;0.60;;;18.20;98.30;;;;;;5045028;28;20321;-66
2022/07/07 03:29:28;;;;;;;2.53;0.80;;;18.20;98.20;;;;;;5046494;28;20029;-66
2022/07/07 03:31:54;;;;;;;0.90;0.60;;;18.20;98.20;;;;;;5046961;28;20021;-66
2022/07/07 03:34:19;;;;;;;2.55;0.82;;;18.20;98.20;;;;;;5045318;28;20304;-67
2022/07/07 03:36:45;;;;;;;1.92;0.70;;;18.10;98.10;;;;;;5045387;28;20033;-65
2022/07/07 03:39:11;;;;;;;2.03;0.70;;;18.10;98.20;;;;;;5046166;28;20033;-66
2022/07/07 03:41:38;;;;;;;1.58;0.70;;;18.00;98.20;;;;;;5045198;28;20063;-66
2022/07/07 03:44:04;;;;;;;0.60;0.60;;;18.10;98.40;;;;;;5046434;28;20034;-66
2022/07/07 03:46:29;;;;;;;1.63;0.80;;;18.00;98.00;;;;;;5046391;28;20062;-66
2022/07/07 03:48:56;;;;;;;1.10;0.73;;;18.10;97.90;;;;;;5046333;28;20028;-66
2022/07/07 03:51:22;;;;;;;0.75;0.52;;;18.10;97.90;;;;;;5046403;28;20021;-66
2022/07/07 03:53:48;;;;;;;3.10;0.80;;;18.00;98.00;;;;;;5044845;28;20060;-66
2022/07/07 03:56:13;;;;;;;1.40;0.77;;;18.10;97.60;;;;;;5045916;28;20074;-66
2022/07/07 03:58:39;;;;;;;1.55;0.60;;;18.00;97.80;;;;;;5046054;28;20047;-66
2022/07/07 04:01:05;;;;;;;1.55;0.93;;;18.10;97.90;;;;;;5046240;28;20029;-65
2022/07/07 04:03:30;;;;;;;2.35;1.20;;;18.10;98.00;;;;;;5045858;28;20037;-66
2022/07/07 04:05:56;;;;;;;1.50;0.85;;;18.20;97.40;;;;;;5045185;28;20052;-65
2022/07/07 04:08:23;;;;;;;2.25;0.80;;;18.10;97.30;;;;;;5046015;28;20028;-66
2022/07/07 04:10:48;;;;;;;0.75;0.70;;;18.10;97.40;;;;;;5046033;28;20231;-65
2022/07/07 04:13:15;;;;;;;2.00;0.77;;;18.00;97.00;;;;;;5045379;28;20092;-66
2022/07/07 04:15:41;;;;;;;2.95;0.73;;;17.90;97.20;;;;;;5044158;28;20021;-66
2022/07/07 04:18:06;;;;;;;3.15;0.70;;;17.90;97.30;;;;;;5044729;28;20036;-65
2022/07/07 04:20:32;;;;;;;0.68;0.57;;;17.80;97.20;;;;;;5045738;28;20080;-66
2022/07/07 04:22:58;;;;;;;1.95;0.70;;;17.80;97.30;;;;;;5044636;28;20239;-65
2022/07/07 04:25:24;;;;;;;2.25;0.70;;;17.70;97.30;;;;;;5060685;28;20085;-66
2022/07/07 04:27:50;;;;;;;0.70;0.60;;;17.70;97.40;;;;;;5045933;28;20025;-65
2022/07/07 04:30:16;;;;;;;0.93;0.60;;;17.70;97.40;;;;;;5045097;28;20331;-65
2022/07/07 04:32:42;;;;;;;1.67;0.73;;;17.70;97.50;;;;;;5044469;28;20026;-66
2022/07/07 04:35:08;;;;;;;1.50;0.60;;;17.60;97.50;;;;;;5045320;28;20178;-66
2022/07/07 04:37:34;;;;;;;1.30;0.50;;;17.70;97.40;;;;;;5045576;28;20061;-66
2022/07/07 04:40:00;;;;;;;0.90;0.60;;;17.60;97.50;;;;;;5045478;28;20029;-66
2022/07/07 04:42:27;;;;;;;1.80;0.70;;;17.60;97.60;;;;;;5060883;28;20091;-66
2022/07/07 04:44:53;;;;;;;0.82;0.47;;;17.60;97.40;;;;;;5045143;28;20312;-65
2022/07/07 04:47:18;;;;;;;1.65;0.68;;;17.70;97.30;;;;;;5045319;28;20036;-66
2022/07/07 04:49:44;;;;;;;1.67;0.90;;;17.80;97.20;;;;;;5044196;28;20021;-66
2022/07/07 04:52:09;;;;;;;1.35;0.82;;;17.80;97.00;;;;;;5043824;28;20063;-66
2022/07/07 04:54:35;;;;;;;4.50;0.68;;;17.80;97.20;;;;;;5044966;28;20040;-66
2022/07/07 04:57:01;;;;;;;3.20;0.90;;;17.80;96.80;;;;;;5044722;28;20037;-66
2022/07/07 04:59:26;;;;;;;3.75;0.98;;;17.90;96.80;;;;;;5044917;28;20339;-66
2022/07/07 05:01:52;;;;;;;1.48;0.80;;;17.90;96.60;;;;;;5044878;28;20144;-65
2022/07/07 05:04:18;;;;;;;2.75;0.77;;;17.90;96.70;;;;;;5044853;28;20025;-66
2022/07/07 05:06:43;;;;;;;1.83;0.75;;;17.90;96.80;;;;;;5044864;28;20025;-66
2022/07/07 05:09:10;;;;;;;4.65;0.90;;;18.00;96.40;;;;;;5044800;28;20029;-65
2022/07/07 05:11:36;;;;;;;2.58;0.80;;;18.00;96.30;;;;;;5044943;28;20067;-66
2022/07/07 05:14:02;;;;;;;1.73;0.80;;;18.00;96.30;;;;;;5044772;28;20025;-66
2022/07/07 05:16:29;;;;;;;2.60;0.80;;;18.00;96.30;;;;;;5043434;28;20025;-65
2022/07/07 05:18:55;;;;;;;2.05;1.10;;;17.90;96.70;;;;;;5043472;28;20060;-66
2022/07/07 05:21:21;;;;;;;1.63;0.90;;;18.00;96.40;;;;;;5044644;28;20312;-66
2022/07/07 05:23:46;;;;;;;2.60;0.98;;;18.00;96.20;;;;;;5044431;28;20067;-66
2022/07/07 05:26:12;;;;;;;3.30;1.10;;;18.00;96.20;;;;;;5043789;28;20043;-67
2022/07/07 05:28:41;;;;;;;2.70;1.10;;;18.00;96.10;;;;;;5044253;28;20021;-66
2022/07/07 05:31:10;;;;;;;3.40;1.20;;;18.10;96.10;;;;;;5043297;28;20040;-66
2022/07/07 05:33:36;;;;;;;1.80;1.10;;;18.00;96.10;;;;;;5042768;28;20018;-66
2022/07/07 05:36:02;;;;;;;4.28;0.85;;;18.10;95.90;;;;;;5042905;28;20040;-66
2022/07/07 05:38:28;;;;;;;2.10;1.10;;;18.10;95.80;;;;;;5044226;28;20029;-66
2022/07/07 05:40:53;;;;;;;2.42;0.80;;;18.10;95.90;;;;;;5042717;28;20021;-66
2022/07/07 05:43:19;;;;;;;3.60;0.90;;;18.10;95.80;;;;;;5044291;28;20067;-67
2022/07/07 05:45:46;;;;;;;2.97;1.30;;;18.10;95.80;;;;;;5043861;28;20105;-66
2022/07/07 05:48:11;;;;;;;3.88;1.25;;;18.10;95.90;;;;;;5044215;28;20220;-66
2022/07/07 05:50:37;;;;;;;2.80;1.30;;;18.20;95.90;;;;;;5043890;28;20044;-66
2022/07/07 05:53:03;;;;;;;4.55;1.58;;;18.10;95.70;;;;;;5043836;28;20091;-66
2022/07/07 05:55:29;;;;;;;3.92;1.50;;;18.20;96.00;;;;;;5043432;28;20244;-66
2022/07/07 05:57:55;;;;;;;1.33;1.02;;;18.20;95.60;;;;;;5043794;28;20371;-67
2022/07/07 06:00:23;;;;;;;2.35;1.00;;;18.30;95.30;;;;;;5043879;28;20029;-66
2022/07/07 06:02:49;;;;;;;4.40;1.50;;;18.30;95.40;;;;;;5043730;28;20024;-66
2022/07/07 06:05:14;;;;;;;2.03;1.00;;;18.40;95.40;;;;;;5043609;28;20033;-66
2022/07/07 06:07:40;;;;;;;3.83;1.02;;;18.50;94.80;;;;;;5043844;28;20061;-67
2022/07/07 06:10:07;;;;;;;2.08;0.82;;;18.40;94.90;;;;;;5042557;28;20124;-67
2022/07/07 06:12:33;;;;;;;3.53;1.40;;;18.50;95.00;;;;;;5043823;28;20017;-66
2022/07/07 06:14:59;;;;;;;1.80;1.00;;;18.50;94.90;;;;;;5042464;28;20316;-65
2022/07/07 06:17:25;;;;;;;3.83;1.42;;;18.50;94.70;;;;;;5040502;28;20060;-65
2022/07/07 06:19:50;;;;;;;2.70;1.00;;;18.60;94.60;;;;;;5043852;28;20025;-66
2022/07/07 06:22:16;;;;;;;2.75;1.23;;;18.60;94.50;;;;;;5025539;28;20029;-67
2022/07/07 06:24:42;;;;;;;2.20;0.95;;;18.60;94.50;;;;;;5042281;28;20033;-66
2022/07/07 06:27:08;;;;;;;2.55;1.08;;;18.60;94.50;;;;;;5042126;28;20018;-68
2022/07/07 06:29:33;;;;;;;4.22;1.20;;;18.60;94.20;;;;;;5043340;28;20030;-67
2022/07/07 06:31:59;;;;;;;1.70;0.98;;;18.60;94.10;;;;;;5042932;28;20022;-67
2022/07/07 06:34:25;;;;;;;2.08;1.13;;;18.60;94.10;;;;;;5043109;28;20037;-67
2022/07/07 06:36:50;;;;;;;3.00;1.02;;;18.60;94.20;;;;;;5040847;28;20025;-67
2022/07/07 06:39:16;;;;;;;4.40;1.33;;;18.70;94.10;;;;;;5043231;28;20025;-67
2022/07/07 06:41:42;;;;;;;2.75;1.45;;;18.60;94.10;;;;;;5042940;28;20328;-67
2022/07/07 06:44:09;;;;;;;3.25;1.00;;;18.60;94.10;;;;;;5043463;28;20029;-67
2022/07/07 06:46:35;;;;;;;1.23;0.90;;;18.60;94.10;;;;;;5044649;28;20213;-67
2022/07/07 06:49:01;;;;;;;4.70;1.20;;;18.70;94.00;;;;;;5047059;28;20063;-67
2022/07/07 06:51:27;;;;;;;2.00;1.15;;;18.60;93.90;;;;;;5046037;28;20052;-67
2022/07/07 06:53:53;;;;;;;2.58;0.90;;;18.50;93.90;;;;;;5046717;28;20056;-67
2022/07/07 06:56:21;;;;;;;3.28;1.13;;;18.50;94.10;;;;;;5046619;28;20017;-67
2022/07/07 06:58:47;;;;;;;3.70;1.20;;;18.50;94.20;;;;;;5045930;28;20052;-67
2022/07/07 07:01:13;;;;;;;5.18;1.27;;;18.50;94.20;;;;;;5079220;28;20041;-66
2022/07/07 07:03:39;;;;;;;1.75;1.20;;;18.60;94.30;;;;;;5047092;28;20031;-67
2022/07/07 07:06:04;;;;;;;3.97;1.13;;;18.60;94.30;;;;;;5046881;28;20034;-67
2022/07/07 07:08:31;;;;;;;4.88;1.23;;;18.70;94.10;;;;;;5046593;28;20222;-67
2022/07/07 07:10:56;;;;;;;2.28;1.25;;;18.70;94.10;;;;;;5030903;28;20125;-68
2022/07/07 07:13:22;;;;;;;2.72;1.23;;;18.80;93.80;;;;;;5041268;28;20053;-67
2022/07/07 07:15:48;;;;;;;3.08;1.40;;;18.70;94.00;;;;;;5045496;28;20036;-67
2022/07/07 07:18:13;;;;;;;4.40;1.35;;;18.80;93.70;;;;;;5042023;28;20088;-67
2022/07/07 07:20:40;;;;;;;2.30;1.25;;;18.80;93.80;;;;;;5044948;28;20033;-68
2022/07/07 07:23:06;;;;;;;1.90;1.10;;;18.90;93.60;;;;;;5045955;28;20036;-67
2022/07/07 07:25:32;;;;;;;4.32;1.40;;;18.80;93.60;;;;;;5044975;28;20037;-67
2022/07/07 07:27:57;;;;;;;2.65;1.20;;;18.70;93.70;;;;;;5043359;28;20021;-67
2022/07/07 07:30:23;;;;;;;3.28;1.15;;;18.60;93.80;;;;;;5046021;28;20032;-68
2022/07/07 07:32:48;;;;;;;5.18;1.63;;;18.70;94.00;;;;;;5044690;28;20246;-67
2022/07/07 07:35:14;;;;;;;3.97;1.38;;;18.90;93.60;;;;;;5046318;28;20025;-68
2022/07/07 07:37:40;;;;;;;3.53;1.10;;;19.10;93.60;;;;;;5046309;28;20083;-67
2022/07/07 07:40:08;;;;;;;1.35;1.00;;;19.10;93.20;;;;;;5046184;28;20044;-67
2022/07/07 07:42:34;;;;;;;1.98;1.10;;;19.10;93.10;;;;;;5046305;28;20024;-67
2022/07/07 07:45:15;;;;;;;4.78;1.25;;;19.10;93.20;;;;;;5044522;28;20328;-68
2022/07/07 07:47:44;;;;;;;2.40;1.23;;;19.00;93.30;;;;;;5045381;28;20063;-68
2022/07/07 07:50:13;;;;;;;7.38;1.50;;;19.00;93.40;;;;;;5045924;28;20025;-67
2022/07/07 07:52:40;;;;;;;3.03;1.25;;;19.10;93.50;;;;;;5045417;28;20053;-66
2022/07/07 07:55:07;;;;;;;5.13;1.75;;;19.20;93.10;;;;;;5044269;28;20029;-66
2022/07/07 07:57:34;;;;;;;3.22;1.02;;;19.20;93.30;;;;;;5045199;28;20036;-67
2022/07/07 08:00:00;;;;;;;6.63;1.52;;;19.00;93.60;;;;;;5044502;28;20021;-67
2022/07/07 08:02:26;;;;;;;5.28;1.60;;;19.00;94.00;;;;;;5045434;28;20308;-67
2022/07/07 08:04:51;;;;;;;2.10;1.33;;;19.00;94.10;;;;;;5045250;28;20029;-66
2022/07/07 08:07:17;;;;;;;6.30;1.70;;;18.70;94.40;;;;;;5045552;28;20037;-67
2022/07/07 08:09:43;;;;;;;6.22;1.98;;;18.50;94.40;;;;;;5043439;28;20017;-68
2022/07/07 08:12:10;;;;;;;5.68;1.65;;;18.30;94.80;;;;;;5045111;28;20025;-66
2022/07/07 08:14:35;;;;;;;6.57;1.70;;;18.10;95.00;;;;;;5045302;28;20459;-67
2022/07/07 08:17:01;;;;;;;3.30;1.40;;;18.10;95.20;;;;;;5044494;28;20052;-67
2022/07/07 08:19:27;;;;;;;6.18;1.52;;;18.00;95.30;;;;;;5043412;28;20052;-67
2022/07/07 08:21:53;;;;;;;4.40;1.70;;;18.10;95.20;;;;;;5043281;28;20027;-67
2022/07/07 08:24:19;;;;;;;5.50;1.60;;;18.10;95.10;;;;;;5044628;28;20028;-67
2022/07/07 08:26:44;;;;;;;2.15;1.60;;;18.00;95.40;;;;;;5044722;28;20033;-66
2022/07/07 08:29:10;;;;;;;2.38;1.48;;;18.00;95.50;;;;;;5043450;28;20208;-66
2022/07/07 08:31:36;;;;;;;3.70;1.70;;;18.00;95.40;;;;;;5044713;28;20030;-67
2022/07/07 08:34:02;;;;;;;5.40;1.73;;;17.90;95.20;;;;;;5044241;28;20084;-67
2022/07/07 08:36:30;;;;;;;4.47;1.88;;;17.90;95.60;;;;;;5043739;28;20021;-66
2022/07/07 08:38:56;;;;;;;9.20;1.70;;;17.90;95.60;;;;;;5042107;28;20087;-66
2022/07/07 08:41:22;;;;;;;3.42;1.60;;;17.90;95.60;;;;;;5042954;28;20044;-67
2022/07/07 08:43:49;;;;;;;4.93;1.50;;;17.90;95.60;;;;;;5044527;28;20032;-67
2022/07/07 08:46:15;;;;;;;3.95;1.70;;;18.00;95.50;;;;;;5042686;28;20090;-67
2022/07/07 08:48:43;;;;;;;4.60;1.73;;;18.20;95.10;;;;;;5044584;28;20032;-68
2022/07/07 08:51:09;;;;;;;5.28;2.08;;;18.40;94.80;;;;;;5042952;28;20269;-68
2022/07/07 08:53:36;;;;;;;5.80;1.60;;;18.50;94.60;;;;;;5059611;28;20053;-68
2022/07/07 08:56:05;;;;;;;5.32;1.70;;;18.80;94.40;;;;;;5043947;28;20033;-68
2022/07/07 08:58:35;;;;;;;5.18;1.40;;;18.80;94.30;;;;;;5042780;28;20271;-68
2022/07/07 09:01:06;;;;;;;7.25;1.80;;;18.80;94.70;;;;;;5074260;28;20033;-67
2022/07/07 09:03:32;;;;;;;4.30;2.00;;;18.80;94.60;;;;;;5059322;28;20040;-68
2022/07/07 09:05:58;;;;;;;4.18;1.60;;;18.70;94.80;;;;;;5044143;28;20061;-69
2022/07/07 09:08:24;;;;;;;3.58;1.90;;;18.40;95.20;;;;;;5042896;28;20025;-67
2022/07/07 09:10:51;;;;;;;5.93;1.50;;;18.30;95.30;;;;;;5059461;28;20029;-69
2022/07/07 09:13:23;;;;;;;6.20;1.20;;;18.20;95.50;;;;;;5059705;28;20013;-68
2022/07/07 09:15:50;;;;;;;7.78;1.58;;;18.10;95.60;;;;;;5043913;28;20040;-67
2022/07/07 09:18:37;;;;;;;9.02;2.03;;;18.10;95.80;;;;;;5044012;28;20040;-68
2022/07/07 09:21:06;;;;;;;5.07;1.60;;;18.10;95.80;;;;;;5054870;28;20026;-68
2022/07/07 09:23:32;;;;;;;4.18;1.50;;;18.20;95.60;;;;;;5043513;28;20021;-67
2022/07/07 09:25:59;;;;;;;4.50;1.50;;;18.20;95.10;;;;;;5058196;28;20209;-69
2022/07/07 09:28:26;;;;;;;4.03;1.40;;;18.00;95.30;;;;;;5042759;28;20045;-69
2022/07/07 09:30:53;;;;;;;4.32;1.40;;;18.10;95.30;;;;;;5042117;28;20387;-69
2022/07/07 09:33:22;;;;;;;3.38;1.50;;;18.10;95.30;;;;;;5043499;28;20339;-67
2022/07/07 09:38:39;;;;;;;1.90;1.13;;;18.30;95.20;;;;;;5029393;28;20393;-68
2022/07/07 09:41:08;;;;;;;5.78;1.50;;;18.70;94.60;;;;;;5043662;28;20071;-68
2022/07/07 09:43:44;;;;;;;2.72;1.30;;;18.90;93.80;;;;;;5042756;28;20045;-69
2022/07/07 09:46:27;;;;;;;4.10;1.10;;;19.10;93.60;;;;;;5042394;28;20025;-69
2022/07/07 09:48:54;;;;;;;3.60;1.00;;;19.20;93.30;;;;;;5042368;28;20026;-68
2022/07/07 09:51:32;;;;;;;7.72;1.50;;;19.00;93.30;;;;;;5042601;28;20049;-68
2022/07/07 09:54:02;;;;;;;5.88;1.70;;;18.80;93.50;;;;;;5043470;28;20317;-68
2022/07/07 09:56:35;;;;;;;5.10;1.50;;;18.80;93.40;;;;;;5042104;28;20309;-68
2022/07/07 09:59:03;;;;;;;3.58;1.60;;;19.00;93.30;;;;;;5058270;28;20036;-67
2022/07/07 10:01:32;;;;;;;3.78;1.17;;;19.20;92.90;;;;;;5058857;28;20053;-68
2022/07/07 10:04:00;;;;;;;3.65;1.00;;;19.10;92.50;;;;;;5043293;28;20296;-68
2022/07/07 10:06:27;;;;;;;4.35;1.02;;;18.90;92.40;;;;;;5075239;28;20076;-68
2022/07/07 10:08:58;;;;;;;6.07;1.33;;;19.00;92.30;;;;;;5043058;28;20071;-68
2022/07/07 10:11:33;;;;;;;6.20;1.20;;;19.00;92.20;;;;;;5038547;28;20088;-67
2022/07/07 10:14:07;;;;;;;3.78;1.20;;;18.90;92.00;;;;;;5038367;28;20017;-69
2022/07/07 10:16:33;;;;;;;2.80;1.30;;;18.70;92.10;;;;;;5023821;28;20022;-67
2022/07/07 10:19:00;;;;;;;3.72;1.42;;;19.00;92.10;;;;;;5041416;28;20029;-68
2022/07/07 10:21:25;;;;;;;3.80;1.27;;;19.20;91.40;;;;;;5041714;28;20232;-68
2022/07/07 10:23:51;;;;;;;3.95;0.93;;;19.40;91.40;;;;;;5042669;28;20116;-67
2022/07/07 10:26:33;;;;;;;2.30;1.25;;;19.50;91.10;;;;;;5041671;28;20088;-69
2022/07/07 10:28:59;;;;;;;3.40;1.10;;;19.30;91.10;;;;;;5042810;28;20025;-68
2022/07/07 10:31:27;;;;;;;4.15;1.48;;;19.10;91.60;;;;;;5041532;28;20287;-67
2022/07/07 10:33:59;;;;;;;1.88;1.10;;;19.10;91.70;;;;;;5041764;28;20362;-67
2022/07/07 10:36:24;;;;;;;;;;;19.30;91.60;;;;;;5025114;28;20072;-67
2022/07/07 10:38:57;;;;;;;3.00;1.10;;;19.60;91.40;;;;;;5042827;28;19921;-67
2022/07/07 10:41:25;;;;;;;3.53;1.10;;;19.90;90.70;;;;;;5042390;28;20075;-66
2022/07/07 10:44:05;;;;;;;3.80;1.08;;;20.20;90.00;;;;;;5042737;28;20018;-67
2022/07/07 10:46:31;;;;;;;2.50;1.00;;;20.30;90.00;;;;;;5025124;28;20083;-68
2022/07/07 10:49:10;;;;;;;3.35;1.08;;;20.20;88.90;;;;;;5041282;28;20305;-68
2022/07/07 10:51:57;;;;;;;1.63;1.42;;;20.00;89.60;;;;;;5042613;28;20029;-69
2022/07/07 10:54:35;;;;;;;2.45;1.20;;;20.10;89.80;;;;;;5041232;28;20059;-66
2022/07/07 10:57:27;;;;;;;3.85;1.10;;;20.20;88.60;;;;;;5040649;28;20025;-68
2022/07/07 11:00:08;;;;;;;2.60;1.40;;;20.60;88.30;;;;;;5040971;28;20040;-69
2022/07/07 11:02:55;;;;;;;2.78;1.25;;;20.70;87.60;;;;;;5041025;28;20085;-67
2022/07/07 11:05:26;;;;;;;2.17;1.30;;;20.70;87.00;;;;;;5028005;28;20044;-69
2022/07/07 11:08:09;;;;;;;2.58;1.40;;;20.90;87.00;;;;;;5041516;28;20305;-68
2022/07/07 11:10:49;;;;;;;2.30;1.60;;;20.70;87.20;;;;;;5039692;28;20056;-67
2022/07/07 11:13:22;;;;;;;1.70;1.60;;;20.60;87.50;;;;;;5041013;28;20037;-67
2022/07/07 11:15:50;;;;;;;2.42;1.60;;;20.70;87.50;;;;;;5040862;28;20021;-67
2022/07/07 11:18:18;;;;;;;2.28;1.60;;;20.50;87.80;;;;;;5024906;28;20037;-69
2022/07/07 11:21:01;;;;;;;2.50;1.50;;;20.40;88.40;;;;;;5039382;28;20320;-67
2022/07/07 11:23:48;;;;;;;1.58;1.35;;;20.70;87.50;;;;;;5041205;28;20033;-69
2022/07/07 11:26:16;;;;;;;4.18;1.30;;;20.80;87.20;;;;;;5041403;28;20062;-66
2022/07/07 11:28:42;;;;;;;1.85;1.00;;;20.90;87.10;;;;;;5040495;28;20212;-67
2022/07/07 11:31:09;;;;;;;1.17;0.95;;;21.00;86.80;;;;;;5041559;28;20025;-67
2022/07/07 11:33:36;;;;;;;2.65;1.10;;;21.20;86.00;;;;;;5045437;28;20032;-67
2022/07/07 11:36:10;;;;;;;3.42;1.10;;;21.40;85.70;;;;;;5044809;28;20021;-69
2022/07/07 11:38:36;;;;;;;3.28;0.73;;;21.50;85.80;;;;;;5046164;28;20026;-69
2022/07/07 11:41:02;;;;;;;2.10;1.30;;;21.40;85.70;;;;;;5045556;28;20071;-67
2022/07/07 11:43:27;;;;;;;2.25;0.80;;;21.30;85.00;;;;;;5045317;28;20025;-68
2022/07/07 11:45:53;;;;;;;2.25;0.90;;;21.30;85.00;;;;;;5060956;28;20033;-66
2022/07/07 11:48:21;;;;;;;1.33;1.08;;;21.30;84.70;;;;;;5045316;28;20251;-66
2022/07/07 11:50:48;;;;;;;0.80;0.80;;;21.60;84.30;;;;;;5045929;28;20041;-67
2022/07/07 11:53:17;;;;;;;3.17;1.20;;;21.80;84.30;;;;;;5045752;28;20076;-66
2022/07/07 11:55:42;;;;;;;2.15;1.10;;;21.90;83.60;;;;;;5045509;28;20026;-68
2022/07/07 11:58:09;;;;;;;2.17;1.02;;;21.90;83.10;;;;;;5044752;28;20033;-68
2022/07/07 12:00:37;;;;;;;1.13;1.00;;;21.70;83.50;;;;;;5046101;28;20029;-67
2022/07/07 12:03:06;;;;;;;4.25;1.60;;;21.60;83.60;;;;;;5044175;28;20064;-68
2022/07/07 12:05:37;;;;;;;1.40;1.30;;;21.60;83.90;;;;;;5044748;28;20057;-68
2022/07/07 12:08:06;;;;;;;1.75;1.45;;;21.60;83.70;;;;;;5045544;28;20040;-68
2022/07/07 12:10:35;;;;;;;1.58;1.25;;;21.40;84.90;;;;;;5044688;28;20208;-68
2022/07/07 12:13:05;;;;;;;2.72;1.65;;;21.40;85.00;;;;;;5043542;28;20026;-66
2022/07/07 12:15:35;;;;;;;4.30;1.35;;;21.20;85.20;;;;;;5045303;28;20069;-68
2022/07/07 12:18:03;;;;;;;1.20;1.10;;;21.20;85.10;;;;;;5051703;28;20312;-67
2022/07/07 12:20:29;;;;;;;4.68;1.35;;;21.10;85.50;;;;;;5062975;28;20024;-68
2022/07/07 12:22:57;;;;;;;1.38;1.27;;;21.10;85.50;;;;;;5055693;28;20300;-68
2022/07/07 12:25:34;;;;;;;2.45;1.30;;;21.30;85.30;;;;;;5059915;28;20013;-67
2022/07/07 12:28:03;;;;;;;1.33;1.20;;;21.30;84.60;;;;;;5043991;28;20178;-68
2022/07/07 12:30:32;;;;;;;0.90;0.90;;;21.00;85.20;;;;;;5044396;28;20025;-68
2022/07/07 12:32:58;;;;;;;1.35;0.90;;;20.70;85.50;;;;;;5040397;28;20068;-67
2022/07/07 12:35:39;;;;;;;2.17;1.30;;;20.70;86.10;;;;;;5043410;28;20212;-69
2022/07/07 12:38:06;;;;;;;1.17;1.10;;;20.70;85.90;;;;;;5044556;28;20083;-69
2022/07/07 12:40:34;;;;;;;3.15;1.10;;;20.70;86.10;;;;;;5059943;28;20120;-67
2022/07/07 12:43:06;;;;;;;1.50;1.10;;;20.80;86.00;;;;;;5059933;28;20212;-68
2022/07/07 12:45:32;;;;;;;2.45;1.25;;;20.80;86.40;;;;;;5044608;28;20025;-67
2022/07/07 12:47:58;;;;;;;3.42;1.25;;;20.90;86.20;;;;;;5044713;28;20022;-68
2022/07/07 12:50:25;;;;;;;1.65;1.25;;;20.90;85.80;;;;;;5044865;28;20028;-68